createdAt,value
2023-03-06T05:00:35.107Z,1.33
2023-03-06T05:01:36.093Z,1.36
2023-03-06T05:02:36.101Z,1.36
2023-03-06T05:03:36.077Z,1.29
2023-03-06T05:04:36.069Z,1.32
2023-03-06T05:05:36.049Z,1.28
2023-03-06T05:06:36.072Z,1.29
2023-03-06T05:07:36.024Z,1.26
2023-03-06T05:08:36.036Z,1.28
2023-03-06T05:09:37.664Z,1.24
2023-03-06T05:10:35.984Z,1.22
2023-03-06T05:11:36.000Z,1.19
2023-03-06T05:12:35.978Z,1.21
2023-03-06T05:13:35.951Z,1.18
2023-03-06T05:14:35.986Z,1.19
2023-03-06T05:15:35.911Z,1.19
2023-03-06T05:16:36.141Z,1.15
2023-03-06T05:17:35.918Z,1.18
2023-03-06T05:18:35.869Z,1.18
2023-03-06T05:19:35.859Z,1.14
2023-03-06T05:20:35.869Z,1.15
2023-03-06T05:21:35.876Z,1.12
2023-03-06T05:22:35.828Z,1.12
2023-03-06T05:23:35.799Z,1.12
2023-03-06T05:24:35.819Z,1.07
2023-03-06T05:25:35.779Z,1.10
2023-03-06T05:26:35.827Z,1.07
2023-03-06T05:27:35.763Z,1.08
2023-03-06T05:28:35.761Z,1.07
2023-03-06T05:29:35.762Z,1.06
2023-03-06T05:30:35.746Z,1.04
2023-03-06T05:31:35.764Z,1.01
2023-03-06T05:32:36.071Z,1.00
2023-03-06T05:33:35.709Z,0.97
2023-03-06T05:34:35.688Z,0.97
2023-03-06T05:35:35.731Z,0.96
2023-03-06T05:36:35.676Z,0.94
2023-03-06T05:37:35.675Z,0.96
2023-03-06T05:38:35.676Z,0.94
2023-03-06T05:39:35.649Z,0.98
2023-03-06T05:40:35.695Z,0.97
2023-03-06T05:41:35.722Z,0.96
2023-03-06T05:42:35.630Z,0.94
2023-03-06T05:43:35.613Z,0.96
2023-03-06T05:44:35.621Z,0.94
2023-03-06T05:45:35.648Z,0.92
2023-03-06T05:46:35.598Z,0.94
2023-03-06T05:47:35.562Z,0.94
2023-03-06T05:48:35.607Z,0.96
2023-03-06T05:49:35.551Z,0.94
2023-03-06T05:50:35.547Z,0.97
2023-03-06T05:51:35.549Z,0.97
2023-03-06T05:52:35.516Z,0.90
2023-03-06T05:53:35.507Z,0.96
2023-03-06T05:54:35.484Z,0.92
2023-03-06T05:55:35.480Z,0.89
2023-03-06T05:56:35.470Z,0.89
2023-03-06T05:57:35.457Z,0.85
2023-03-06T05:58:35.510Z,0.85
2023-03-06T05:59:35.442Z,0.88
2023-03-06T06:00:36.093Z,0.83
2023-03-06T06:01:35.545Z,0.85
2023-03-06T06:02:35.487Z,0.83
2023-03-06T06:03:35.490Z,0.80
2023-03-06T06:04:35.395Z,0.80
2023-03-06T06:05:35.362Z,0.82
2023-03-06T06:06:35.469Z,0.80
2023-03-06T06:07:35.394Z,0.80
2023-03-06T06:08:35.406Z,0.79
2023-03-06T06:09:35.392Z,0.82
2023-03-06T06:10:35.398Z,0.79
2023-03-06T06:11:35.398Z,0.76
2023-03-06T06:12:35.482Z,0.80
2023-03-06T06:13:35.356Z,0.78
2023-03-06T06:14:35.318Z,0.75
2023-03-06T06:15:35.294Z,0.78
2023-03-06T06:16:35.310Z,0.80
2023-03-06T06:17:35.332Z,0.80
2023-03-06T06:18:35.244Z,0.80
2023-03-06T06:19:35.236Z,0.68
2023-03-06T06:20:35.292Z,0.72
2023-03-06T06:21:35.221Z,0.75
2023-03-06T06:22:35.262Z,0.70
2023-03-06T06:23:35.365Z,0.71
2023-03-06T06:24:35.252Z,0.71
2023-03-06T06:25:35.212Z,0.67
2023-03-06T06:26:35.273Z,0.67
2023-03-06T06:27:35.235Z,0.68
2023-03-06T06:28:35.142Z,0.67
2023-03-06T06:29:35.130Z,0.70
2023-03-06T06:30:35.134Z,0.68
2023-03-06T06:31:35.249Z,0.68
2023-03-06T06:32:35.131Z,0.68
2023-03-06T06:33:35.137Z,0.71
2023-03-06T06:34:35.105Z,0.72
2023-03-06T06:35:35.195Z,0.79
2023-03-06T06:36:35.077Z,0.92
2023-03-06T06:37:35.058Z,0.86
2023-03-06T06:38:35.161Z,0.86
2023-03-06T06:39:35.040Z,0.85
2023-03-06T06:40:35.020Z,0.80
2023-03-06T06:41:54.930Z,0.72
2023-03-06T06:42:39.681Z,0.72
2023-03-06T06:43:35.289Z,0.75
2023-03-06T06:44:34.987Z,0.71
2023-03-06T06:45:34.987Z,0.71
2023-03-06T06:47:21.367Z,0.72
2023-03-06T06:47:35.044Z,0.70
2023-03-06T06:48:35.662Z,0.72
2023-03-06T06:49:35.047Z,0.71
2023-03-06T06:50:34.918Z,0.72
2023-03-06T06:51:34.959Z,0.72
2023-03-06T06:52:34.915Z,0.79
2023-03-06T06:53:34.954Z,0.83
2023-03-06T06:54:35.004Z,0.82
2023-03-06T06:55:34.860Z,0.80
2023-03-06T06:56:34.867Z,0.88
2023-03-06T06:57:34.876Z,0.85
2023-03-06T06:58:35.141Z,0.82
2023-03-06T06:59:34.883Z,0.76
2023-03-06T07:00:34.826Z,0.78
2023-03-06T07:01:34.961Z,0.75
2023-03-06T07:02:34.790Z,0.79
2023-03-06T07:03:34.783Z,0.78
2023-03-06T07:04:34.763Z,0.75
2023-03-06T07:05:34.779Z,0.78
2023-03-06T07:06:34.733Z,0.76
2023-03-06T07:07:34.764Z,0.82
2023-03-06T07:08:34.736Z,0.79
2023-03-06T07:09:34.743Z,0.76
2023-03-06T07:10:34.697Z,0.80
2023-03-06T07:11:34.750Z,0.78
2023-03-06T07:12:34.695Z,0.79
2023-03-06T07:13:34.672Z,0.76
2023-03-06T07:14:34.689Z,0.76
2023-03-06T07:15:34.724Z,0.72
2023-03-06T07:16:34.633Z,0.72
2023-03-06T07:17:34.902Z,0.76
2023-03-06T07:18:34.632Z,0.75
2023-03-06T07:19:34.667Z,0.75
2023-03-06T07:20:34.584Z,0.79
2023-03-06T07:21:34.611Z,0.75
2023-03-06T07:22:49.906Z,0.76
2023-03-06T07:23:34.577Z,0.76
2023-03-06T07:24:34.657Z,0.75
2023-03-06T07:25:34.576Z,0.76
2023-03-06T07:26:35.005Z,0.79
2023-03-06T07:27:34.585Z,0.83
2023-03-06T07:28:49.763Z,0.83
2023-03-06T07:29:34.564Z,0.82
2023-03-06T07:30:34.528Z,0.85
2023-03-06T07:31:34.518Z,0.82
2023-03-06T07:32:34.522Z,0.88
2023-03-06T07:33:34.524Z,0.88
2023-03-06T07:34:34.449Z,0.85
2023-03-06T07:35:34.511Z,0.82
2023-03-06T07:36:34.462Z,0.85
2023-03-06T07:37:34.448Z,0.79
2023-03-06T07:38:34.420Z,0.80
2023-03-06T07:39:34.418Z,0.86
2023-03-06T07:40:34.428Z,0.89
2023-03-06T07:41:34.458Z,0.92
2023-03-06T07:42:34.384Z,0.88
2023-03-06T07:43:34.407Z,0.85
2023-03-06T07:44:34.373Z,0.89
2023-03-06T07:45:34.360Z,0.96
2023-03-06T07:46:34.368Z,0.98
2023-03-06T07:47:34.311Z,1.01
2023-03-06T07:48:34.285Z,1.08
2023-03-06T07:49:34.304Z,1.14
2023-03-06T07:50:34.621Z,1.08
2023-03-06T07:51:34.293Z,1.10
2023-03-06T07:52:34.247Z,1.07
2023-03-06T07:53:34.256Z,1.12
2023-03-06T07:54:34.256Z,1.15
2023-03-06T07:55:34.243Z,1.19
2023-03-06T07:56:34.234Z,1.08
2023-03-06T07:57:34.225Z,1.14
2023-03-06T07:58:34.199Z,1.16
2023-03-06T07:59:34.183Z,1.15
2023-03-06T08:00:34.171Z,1.24
2023-03-06T08:01:34.189Z,1.25
2023-03-06T08:02:34.216Z,1.29
2023-03-06T08:03:34.322Z,1.26
2023-03-06T08:04:34.121Z,1.24
2023-03-06T08:05:34.119Z,1.16
2023-03-06T08:06:34.129Z,1.19
2023-03-06T08:07:34.108Z,1.16
2023-03-06T08:08:34.101Z,1.10
2023-03-06T08:09:34.079Z,1.15
2023-03-06T08:10:34.058Z,1.12
2023-03-06T08:11:34.068Z,1.12
2023-03-06T08:12:34.065Z,1.14
2023-03-06T08:13:35.024Z,1.14
2023-03-06T08:14:34.038Z,1.18
2023-03-06T08:15:34.047Z,1.07
2023-03-06T08:16:34.115Z,1.06
2023-03-06T08:17:33.986Z,1.04
2023-03-06T08:18:34.035Z,1.00
2023-03-06T08:19:33.984Z,0.97
2023-03-06T08:20:34.016Z,1.01
2023-03-06T08:21:34.104Z,0.92
2023-03-06T08:22:33.963Z,0.94
2023-03-06T08:23:33.975Z,0.86
2023-03-06T08:24:33.955Z,0.86
2023-03-06T08:25:33.919Z,0.88
2023-03-06T08:26:34.062Z,0.88
2023-03-06T08:27:33.926Z,0.82
2023-03-06T08:28:33.959Z,0.82
2023-03-06T08:29:33.881Z,0.83
2023-03-06T08:30:33.908Z,0.88
2023-03-06T08:31:33.971Z,0.90
2023-03-06T08:32:33.915Z,0.90
2023-03-06T08:33:33.875Z,0.89
2023-03-06T08:34:33.817Z,0.92
2023-03-06T08:35:33.847Z,0.92
2023-03-06T08:36:33.794Z,0.86
2023-03-06T08:37:33.915Z,0.89
2023-03-06T08:38:33.759Z,0.88
2023-03-06T08:39:34.021Z,0.89
2023-03-06T08:40:33.756Z,0.80
2023-03-06T08:41:33.759Z,0.79
2023-03-06T08:42:33.750Z,0.82
2023-03-06T08:43:33.728Z,0.86
2023-03-06T08:44:33.761Z,0.86
2023-03-06T08:45:33.724Z,0.88
2023-03-06T08:46:33.685Z,0.90
2023-03-06T08:47:33.668Z,0.90
2023-03-06T08:48:33.669Z,0.88
2023-03-06T08:49:33.729Z,0.85
2023-03-06T08:50:33.669Z,0.80
2023-03-06T08:51:33.651Z,0.76
2023-03-06T08:52:33.616Z,0.78
2023-03-06T08:53:43.194Z,0.70
2023-03-06T08:54:33.650Z,0.70
2023-03-06T08:55:33.606Z,0.75
2023-03-06T08:56:33.596Z,0.79
2023-03-06T08:57:33.581Z,0.75
2023-03-06T08:58:33.610Z,0.76
2023-03-06T08:59:33.545Z,0.70
2023-03-06T09:00:34.354Z,0.68
2023-03-06T09:01:33.552Z,0.70
2023-03-06T09:02:33.617Z,0.67
2023-03-06T09:03:33.665Z,0.70
2023-03-06T09:04:33.577Z,0.62
2023-03-06T09:05:33.526Z,0.62
2023-03-06T09:06:33.520Z,0.60
2023-03-06T09:07:33.529Z,0.62
2023-03-06T09:08:33.926Z,0.62
2023-03-06T09:09:33.475Z,0.67
2023-03-06T09:10:33.533Z,0.64
2023-03-06T09:11:33.491Z,0.61
2023-03-06T09:12:47.396Z,0.61
2023-03-06T09:13:33.440Z,0.60
2023-03-06T09:14:33.450Z,0.60
2023-03-06T09:15:33.667Z,0.61
2023-03-06T09:16:33.443Z,0.61
2023-03-06T09:17:33.448Z,0.58
2023-03-06T09:18:33.380Z,0.60
2023-03-06T09:19:33.385Z,0.52
2023-03-06T09:20:33.341Z,0.46
2023-03-06T09:21:33.316Z,0.46
2023-03-06T09:22:33.312Z,0.45
2023-03-06T09:23:33.349Z,0.45
2023-03-06T09:24:33.336Z,0.49
2023-03-06T09:25:33.308Z,0.48
2023-03-06T09:26:45.125Z,0.49
2023-03-06T09:27:33.331Z,0.51
2023-03-06T09:28:33.501Z,0.49
2023-03-06T09:29:33.305Z,0.51
2023-03-06T09:30:33.556Z,0.46
2023-03-06T09:31:33.273Z,0.45
2023-03-06T09:32:33.312Z,0.45
2023-03-06T09:33:33.300Z,0.48
2023-03-06T09:34:33.220Z,0.46
2023-03-06T09:35:33.276Z,0.45
2023-03-06T09:36:42.746Z,0.43
2023-03-06T09:37:33.169Z,0.49
2023-03-06T09:38:33.178Z,0.46
2023-03-06T09:39:33.294Z,0.52
2023-03-06T09:40:33.146Z,0.57
2023-03-06T09:41:33.137Z,0.60
2023-03-06T09:42:33.110Z,0.67
2023-03-06T09:43:33.093Z,0.67
2023-03-06T09:44:33.083Z,0.65
2023-03-06T09:45:33.114Z,0.67
2023-03-06T09:46:33.073Z,0.68
2023-03-06T09:47:33.058Z,0.67
2023-03-06T09:48:33.028Z,0.62
2023-03-06T09:49:33.079Z,0.68
2023-03-06T09:50:33.071Z,0.78
2023-03-06T09:51:33.064Z,0.76
2023-03-06T09:52:33.054Z,0.75
2023-03-06T09:53:33.038Z,0.79
2023-03-06T09:54:32.970Z,0.79
2023-03-06T09:55:32.986Z,0.76
2023-03-06T09:56:33.006Z,0.71
2023-03-06T09:57:32.943Z,0.72
2023-03-06T09:58:33.132Z,0.71
2023-03-06T09:59:32.976Z,0.80
2023-03-06T10:00:32.967Z,0.79
2023-03-06T10:01:32.914Z,0.79
2023-03-06T10:02:33.027Z,0.83
2023-03-06T10:03:32.993Z,0.82
2023-03-06T10:04:32.938Z,0.82
2023-03-06T10:05:32.867Z,0.79
2023-03-06T10:06:32.864Z,0.76
2023-03-06T10:07:32.927Z,0.78
2023-03-06T10:08:32.957Z,0.82
2023-03-06T10:09:32.938Z,0.85
2023-03-06T10:10:32.837Z,0.89
2023-03-06T10:11:32.832Z,0.90
2023-03-06T10:12:32.858Z,0.94
2023-03-06T10:13:32.842Z,0.97
2023-03-06T10:14:32.841Z,0.97
2023-03-06T10:15:32.903Z,0.97
2023-03-06T10:16:32.836Z,0.94
2023-03-06T10:17:32.825Z,0.89
2023-03-06T10:18:32.725Z,0.80
2023-03-06T10:19:33.188Z,0.82
2023-03-06T10:20:32.765Z,0.85
2023-03-06T10:21:32.757Z,0.85
2023-03-06T10:22:32.716Z,0.88
2023-03-06T10:23:32.683Z,0.83
2023-03-06T10:24:32.713Z,0.82
2023-03-06T10:25:32.804Z,0.89
2023-03-06T10:26:32.934Z,0.92
2023-03-06T10:27:32.638Z,0.92
2023-03-06T10:28:35.119Z,0.88
2023-03-06T10:29:32.670Z,0.88
2023-03-06T10:30:32.676Z,0.88
2023-03-06T10:31:32.631Z,0.97
2023-03-06T10:32:46.059Z,0.96
2023-03-06T10:33:32.573Z,0.89
2023-03-06T10:34:32.629Z,0.82
2023-03-06T10:35:32.685Z,0.83
2023-03-06T10:36:32.568Z,0.82
2023-03-06T10:37:32.694Z,0.80
2023-03-06T10:38:32.528Z,0.79
2023-03-06T10:39:32.500Z,0.83
2023-03-06T10:40:32.526Z,0.80
2023-03-06T10:41:32.494Z,0.78
2023-03-06T10:42:32.572Z,0.79
2023-03-06T10:43:34.062Z,0.79
2023-03-06T10:44:32.474Z,0.88
2023-03-06T10:45:47.280Z,0.85
2023-03-06T10:46:32.537Z,0.89
2023-03-06T10:47:32.425Z,0.97
2023-03-06T10:48:32.469Z,0.97
2023-03-06T10:49:32.418Z,0.94
2023-03-06T10:50:32.407Z,0.89
2023-03-06T10:51:32.407Z,0.88
2023-03-06T10:52:32.384Z,0.90
2023-03-06T10:53:32.373Z,0.85
2023-03-06T10:54:32.382Z,0.88
2023-03-06T10:55:32.349Z,0.90
2023-03-06T10:56:32.643Z,0.97
2023-03-06T10:57:32.354Z,0.98
2023-03-06T10:58:32.416Z,0.94
2023-03-06T10:59:32.280Z,1.00
2023-03-06T11:00:32.289Z,0.97
2023-03-06T11:01:32.376Z,0.96
2023-03-06T11:02:32.269Z,0.94
2023-03-06T11:03:32.262Z,0.96
2023-03-06T11:04:32.283Z,0.92
2023-03-06T11:05:32.219Z,0.92
2023-03-06T11:06:32.228Z,0.97
2023-03-06T11:07:32.273Z,0.97
2023-03-06T11:08:33.273Z,1.03
2023-03-06T11:09:32.185Z,1.10
2023-03-06T11:10:32.196Z,1.10
2023-03-06T11:11:37.826Z,1.07
2023-03-06T11:12:32.173Z,1.10
2023-03-06T11:13:32.187Z,1.15
2023-03-06T11:14:32.148Z,1.21
2023-03-06T11:15:32.153Z,1.16
2023-03-06T11:16:32.208Z,1.04
2023-03-06T11:17:32.266Z,1.04
2023-03-06T11:18:32.104Z,1.04
2023-03-06T11:19:32.109Z,1.08
2023-03-06T11:20:48.412Z,1.04
2023-03-06T11:21:32.066Z,0.98
2023-03-06T11:22:32.068Z,1.03
2023-03-06T11:23:32.070Z,1.01
2023-03-06T11:24:32.044Z,1.03
2023-03-06T11:25:32.029Z,1.00
2023-03-06T11:26:32.012Z,0.96
2023-03-06T11:27:31.996Z,0.98
2023-03-06T11:28:32.116Z,1.04
2023-03-06T11:29:34.538Z,1.08
2023-03-06T11:30:32.013Z,1.04
2023-03-06T11:31:31.998Z,1.06
2023-03-06T11:32:32.163Z,1.08
2023-03-06T11:33:32.084Z,1.04
2023-03-06T11:34:32.008Z,1.01
2023-03-06T11:35:32.083Z,1.08
2023-03-06T11:36:32.065Z,1.12
2023-03-06T11:37:32.028Z,1.18
2023-03-06T11:38:31.950Z,1.14
2023-03-06T11:39:31.936Z,1.01
2023-03-06T11:40:31.924Z,1.03
2023-03-06T11:41:31.857Z,1.14
2023-03-06T11:42:31.877Z,1.16
2023-03-06T11:43:31.853Z,1.14
2023-03-06T11:44:31.861Z,1.08
2023-03-06T11:45:31.830Z,1.00
2023-03-06T11:46:31.878Z,0.94
2023-03-06T11:47:31.775Z,0.96
2023-03-06T11:48:31.776Z,0.97
2023-03-06T11:49:31.804Z,1.03
2023-03-06T11:50:31.841Z,1.12
2023-03-06T11:51:31.726Z,1.19
2023-03-06T11:52:31.808Z,1.21
2023-03-06T11:53:31.723Z,1.24
2023-03-06T11:54:31.741Z,1.25
2023-03-06T11:55:31.752Z,1.28
2023-03-06T11:56:31.997Z,1.34
2023-03-06T11:57:31.806Z,1.34
2023-03-06T11:58:31.678Z,1.29
2023-03-06T11:59:31.755Z,1.32
2023-03-06T12:00:32.684Z,1.28
2023-03-06T12:01:31.646Z,1.25
2023-03-06T12:02:31.644Z,1.33
2023-03-06T12:03:31.695Z,1.42
2023-03-06T12:04:31.643Z,1.44
2023-03-06T12:05:31.711Z,1.50
2023-03-06T12:06:31.604Z,1.50
2023-03-06T12:07:31.660Z,1.51
2023-03-06T12:08:31.592Z,1.52
2023-03-06T12:09:31.584Z,1.58
2023-03-06T12:10:31.554Z,1.68
2023-03-06T12:11:33.155Z,1.64
2023-03-06T12:12:31.552Z,1.58
2023-03-06T12:13:31.535Z,1.62
2023-03-06T12:14:31.509Z,1.69
2023-03-06T12:15:31.490Z,1.68
2023-03-06T12:16:31.551Z,1.68
2023-03-06T12:17:31.469Z,1.76
2023-03-06T12:18:31.464Z,1.76
2023-03-06T12:19:31.453Z,1.85
2023-03-06T12:20:31.480Z,1.85
2023-03-06T12:21:31.459Z,1.89
2023-03-06T12:22:31.476Z,1.90
2023-03-06T12:23:31.425Z,1.97
2023-03-06T12:24:32.229Z,1.98
2023-03-06T12:25:31.417Z,1.99
2023-03-06T12:26:31.601Z,1.97
2023-03-06T12:27:31.414Z,2.01
2023-03-06T12:28:31.366Z,2.12
2023-03-06T12:29:31.330Z,2.20
2023-03-06T12:30:31.374Z,2.22
2023-03-06T12:31:31.391Z,2.10
2023-03-06T12:32:31.368Z,2.13
2023-03-06T12:33:31.347Z,2.04
2023-03-06T12:34:31.283Z,2.13
2023-03-06T12:35:31.398Z,2.09
2023-03-06T12:36:31.270Z,2.10
2023-03-06T12:37:31.294Z,2.02
2023-03-06T12:38:31.279Z,2.09
2023-03-06T12:39:31.256Z,2.23
2023-03-06T12:40:31.283Z,2.27
2023-03-06T12:41:31.275Z,2.16
2023-03-06T12:42:31.724Z,2.09
2023-03-06T12:43:31.202Z,2.10
2023-03-06T12:44:31.212Z,2.22
2023-03-06T12:45:31.165Z,2.30
2023-03-06T12:46:31.166Z,2.44
2023-03-06T12:47:31.181Z,2.53
2023-03-06T12:48:31.186Z,2.64
2023-03-06T12:49:32.925Z,2.74
2023-03-06T12:50:31.165Z,2.82
2023-03-06T12:51:31.112Z,3.02
2023-03-06T12:52:31.107Z,3.18
2023-03-06T12:53:31.116Z,3.25
2023-03-06T12:54:31.085Z,3.18
2023-03-06T12:55:31.090Z,3.18
2023-03-06T12:56:31.078Z,3.13
2023-03-06T12:57:31.053Z,3.24
2023-03-06T12:58:31.067Z,3.23
2023-03-06T12:59:31.054Z,3.20
2023-03-06T13:00:31.037Z,3.12
2023-03-06T13:01:31.026Z,3.27
2023-03-06T13:02:31.720Z,3.47
2023-03-06T13:03:31.017Z,3.54
2023-03-06T13:04:32.095Z,3.46
2023-03-06T13:05:30.982Z,3.44
2023-03-06T13:06:34.148Z,3.28
2023-03-06T13:07:30.945Z,3.24
2023-03-06T13:08:30.951Z,3.49
2023-03-06T13:09:31.029Z,3.44
2023-03-06T13:10:30.923Z,3.33
2023-03-06T13:11:30.916Z,3.21
2023-03-06T13:12:30.985Z,3.27
2023-03-06T13:13:31.027Z,3.43
2023-03-06T13:14:31.223Z,3.40
2023-03-06T13:15:30.855Z,3.33
2023-03-06T13:16:30.861Z,3.43
2023-03-06T13:17:30.845Z,3.24
2023-03-06T13:18:30.848Z,3.13
2023-03-06T13:19:30.839Z,3.42
2023-03-06T13:20:30.797Z,3.61
2023-03-06T13:21:31.668Z,3.92
2023-03-06T13:22:30.841Z,4.58
2023-03-06T13:23:30.795Z,4.76
2023-03-06T13:24:30.826Z,4.69
2023-03-06T13:25:30.823Z,4.42
2023-03-06T13:26:30.739Z,4.73
2023-03-06T13:27:30.796Z,5.28
2023-03-06T13:28:30.747Z,5.02
2023-03-06T13:29:30.762Z,4.73
2023-03-06T13:30:30.868Z,4.29
2023-03-06T13:31:30.865Z,4.42
2023-03-06T13:32:30.719Z,4.64
2023-03-06T13:33:30.677Z,4.69
2023-03-06T13:34:30.680Z,4.62
2023-03-06T13:35:30.757Z,4.77
2023-03-06T13:36:30.639Z,4.42
2023-03-06T13:37:30.619Z,4.33
2023-03-06T13:38:30.620Z,4.18
2023-03-06T13:39:30.629Z,3.98
2023-03-06T13:40:30.609Z,3.92
2023-03-06T13:41:30.571Z,3.88
2023-03-06T13:42:30.605Z,4.07
2023-03-06T13:43:31.967Z,4.33
2023-03-06T13:44:30.593Z,4.26
2023-03-06T13:45:30.556Z,4.32
2023-03-06T13:46:30.574Z,4.47
2023-03-06T13:47:30.508Z,4.57
2023-03-06T13:48:43.576Z,4.34
2023-03-06T13:49:30.493Z,4.19
2023-03-06T13:50:30.500Z,4.47
2023-03-06T13:51:30.476Z,4.92
2023-03-06T13:52:30.474Z,5.50
2023-03-06T13:53:30.450Z,5.34
2023-03-06T13:54:30.462Z,4.99
2023-03-06T13:55:30.445Z,5.31
2023-03-06T13:56:30.460Z,5.50
2023-03-06T13:57:30.818Z,5.59
2023-03-06T13:58:30.383Z,5.12
2023-03-06T13:59:30.384Z,4.55
2023-03-06T14:00:30.383Z,4.06
2023-03-06T14:01:30.382Z,3.83
2023-03-06T14:02:30.391Z,3.72
2023-03-06T14:03:30.360Z,3.61
2023-03-06T14:04:30.325Z,3.53
2023-03-06T14:05:30.378Z,3.54
2023-03-06T14:06:30.340Z,3.68
2023-03-06T14:07:30.743Z,4.03
2023-03-06T14:08:31.093Z,4.04
2023-03-06T14:09:30.297Z,4.00
2023-03-06T14:10:30.288Z,3.83
2023-03-06T14:11:30.234Z,3.86
2023-03-06T14:12:30.895Z,3.98
2023-03-06T14:13:38.445Z,3.92
2023-03-06T14:14:30.290Z,3.88
2023-03-06T14:15:30.237Z,4.00
2023-03-06T14:16:37.604Z,4.32
2023-03-06T14:17:30.262Z,4.34
2023-03-06T14:18:30.189Z,4.16
2023-03-06T14:19:30.259Z,3.96
2023-03-06T14:20:30.204Z,3.98
2023-03-06T14:21:30.202Z,3.94
2023-03-06T14:22:30.248Z,3.98
2023-03-06T14:23:30.319Z,4.21
2023-03-06T14:24:30.105Z,4.37
2023-03-06T14:25:30.111Z,4.47
2023-03-06T14:26:30.122Z,4.50
2023-03-06T14:27:30.087Z,4.40
2023-03-06T14:28:30.088Z,4.37
2023-03-06T14:29:30.049Z,4.21
2023-03-06T14:30:30.026Z,4.07
2023-03-06T14:31:30.127Z,3.89
2023-03-06T14:32:30.136Z,3.86
2023-03-06T14:33:30.050Z,3.82
2023-03-06T14:34:30.047Z,3.60
2023-03-06T14:35:30.433Z,3.53
2023-03-06T14:36:30.003Z,3.47
2023-03-06T14:37:30.058Z,3.60
2023-03-06T14:38:29.993Z,3.70
2023-03-06T14:39:30.071Z,3.76
2023-03-06T14:40:30.000Z,3.67
2023-03-06T14:41:29.945Z,3.86
2023-03-06T14:42:29.934Z,3.96
2023-03-06T14:43:30.074Z,4.29
2023-03-06T14:44:30.696Z,4.67
2023-03-06T14:45:29.896Z,4.69
2023-03-06T14:46:29.874Z,4.69
2023-03-06T14:47:29.917Z,4.75
2023-03-06T14:48:29.953Z,4.65
2023-03-06T14:49:29.951Z,4.79
2023-03-06T14:50:29.877Z,5.14
2023-03-06T14:51:29.826Z,4.94
2023-03-06T14:52:30.010Z,4.94
2023-03-06T14:53:29.939Z,4.80
2023-03-06T14:54:29.831Z,4.75
2023-03-06T14:55:29.814Z,4.61
2023-03-06T14:56:29.809Z,4.51
2023-03-06T14:57:29.774Z,4.43
2023-03-06T14:58:29.759Z,4.24
2023-03-06T14:59:29.788Z,4.16
2023-03-06T15:00:29.815Z,4.08
2023-03-06T15:01:29.754Z,4.12
2023-03-06T15:02:29.826Z,4.04
2023-03-06T15:03:29.689Z,3.94
2023-03-06T15:04:29.685Z,3.97
2023-03-06T15:05:29.679Z,3.88
2023-03-06T15:06:29.887Z,3.79
2023-03-06T15:07:29.685Z,3.71
2023-03-06T15:08:29.635Z,3.58
2023-03-06T15:09:29.727Z,3.61
2023-03-06T15:10:29.607Z,3.49
2023-03-06T15:11:29.673Z,3.68
2023-03-06T15:12:29.645Z,3.83
2023-03-06T15:13:29.594Z,4.04
2023-03-06T15:14:29.566Z,4.08
2023-03-06T15:15:29.557Z,4.08
2023-03-06T15:16:30.396Z,4.08
2023-03-06T15:17:29.584Z,4.04
2023-03-06T15:18:29.524Z,3.98
2023-03-06T15:19:29.535Z,3.97
2023-03-06T15:20:29.503Z,4.14
2023-03-06T15:21:29.526Z,4.16
2023-03-06T15:22:29.500Z,4.12
2023-03-06T15:23:29.567Z,4.37
2023-03-06T15:24:29.464Z,4.69
2023-03-06T15:25:29.476Z,4.65
2023-03-06T15:26:29.646Z,4.39
2023-03-06T15:27:29.462Z,3.97
2023-03-06T15:28:29.432Z,3.98
2023-03-06T15:29:29.425Z,4.14
2023-03-06T15:30:29.432Z,4.22
2023-03-06T15:31:29.426Z,4.22
2023-03-06T15:32:29.498Z,4.29
2023-03-06T15:33:29.451Z,4.33
2023-03-06T15:34:29.367Z,4.40
2023-03-06T15:35:29.464Z,4.39
2023-03-06T15:36:29.374Z,4.34
2023-03-06T15:37:29.333Z,4.43
2023-03-06T15:38:29.341Z,4.50
2023-03-06T15:39:29.309Z,4.51
2023-03-06T15:40:29.289Z,4.50
2023-03-06T15:41:29.275Z,4.46
2023-03-06T15:42:29.300Z,4.28
2023-03-06T15:43:29.264Z,4.16
2023-03-06T15:44:29.273Z,4.21
2023-03-06T15:45:29.319Z,4.28
2023-03-06T15:46:29.224Z,4.21
2023-03-06T15:47:29.201Z,4.14
2023-03-06T15:48:29.213Z,4.03
2023-03-06T15:49:29.190Z,3.90
2023-03-06T15:50:29.347Z,3.79
2023-03-06T15:51:29.215Z,3.65
2023-03-06T15:52:29.266Z,3.57
2023-03-06T15:53:29.184Z,3.49
2023-03-06T15:54:29.915Z,3.36
2023-03-06T15:55:29.141Z,3.24
2023-03-06T15:56:29.251Z,3.24
2023-03-06T15:57:29.170Z,3.18
2023-03-06T15:58:29.115Z,3.13
2023-03-06T15:59:29.082Z,3.13
2023-03-06T16:00:29.118Z,3.12
2023-03-06T16:01:29.099Z,3.05
2023-03-06T16:02:29.065Z,3.02
2023-03-06T16:03:29.039Z,2.95
2023-03-06T16:04:29.091Z,2.89
2023-03-06T16:05:29.091Z,2.79
2023-03-06T16:06:29.023Z,2.77
2023-03-06T16:07:29.012Z,2.77
2023-03-06T16:08:28.995Z,2.81
2023-03-06T16:09:29.045Z,2.82
2023-03-06T16:10:28.964Z,2.85
2023-03-06T16:11:35.417Z,2.84
2023-03-06T16:12:29.000Z,2.88
2023-03-06T16:13:29.058Z,2.79
2023-03-06T16:14:28.947Z,2.77
2023-03-06T16:15:28.986Z,2.77
2023-03-06T16:16:28.961Z,2.71
2023-03-06T16:17:28.911Z,2.73
2023-03-06T16:18:28.930Z,2.70
2023-03-06T16:19:28.888Z,2.70
2023-03-06T16:20:28.900Z,2.67
2023-03-06T16:21:28.992Z,2.66
2023-03-06T16:22:28.987Z,2.64
2023-03-06T16:23:28.854Z,2.64
2023-03-06T16:24:28.876Z,2.59
2023-03-06T16:25:28.834Z,2.61
2023-03-06T16:26:28.975Z,2.61
2023-03-06T16:27:28.813Z,2.59
2023-03-06T16:28:28.858Z,2.58
2023-03-06T16:29:28.820Z,2.55
2023-03-06T16:30:28.953Z,2.55
2023-03-06T16:31:28.755Z,2.55
2023-03-06T16:32:28.946Z,2.49
2023-03-06T16:33:28.865Z,2.41
2023-03-06T16:34:28.719Z,2.37
2023-03-06T16:35:28.754Z,2.37
2023-03-06T16:36:28.680Z,2.34
2023-03-06T16:37:28.725Z,2.35
2023-03-06T16:38:28.683Z,2.33
2023-03-06T16:39:28.667Z,2.34
2023-03-06T16:40:28.648Z,2.28
2023-03-06T16:41:28.710Z,2.28
2023-03-06T16:42:28.629Z,2.26
2023-03-06T16:43:28.613Z,2.20
2023-03-06T16:44:28.610Z,2.15
2023-03-06T16:45:28.597Z,2.15
2023-03-06T16:46:28.753Z,2.09
2023-03-06T16:47:28.739Z,2.08
2023-03-06T16:48:28.633Z,2.02
2023-03-06T16:49:28.645Z,1.98
2023-03-06T16:50:28.540Z,1.99
2023-03-06T16:51:28.535Z,1.94
2023-03-06T16:52:28.588Z,1.93
2023-03-06T16:53:28.515Z,1.93
2023-03-06T16:54:28.499Z,1.97
2023-03-06T16:55:28.524Z,1.91
2023-03-06T16:56:28.469Z,1.93
2023-03-06T16:57:28.504Z,1.93
2023-03-06T16:58:28.476Z,1.89
2023-03-06T16:59:28.452Z,1.83
2023-03-06T17:00:30.108Z,1.82
2023-03-06T17:01:28.434Z,1.80
2023-03-06T17:02:28.471Z,1.78
2023-03-06T17:03:28.427Z,1.78
2023-03-06T17:04:28.396Z,1.76
2023-03-06T17:05:28.382Z,1.75
2023-03-06T17:06:28.374Z,1.72
2023-03-06T17:07:28.357Z,1.73
2023-03-06T17:08:28.358Z,1.75
2023-03-06T17:09:28.434Z,1.76
2023-03-06T17:10:28.332Z,1.73
2023-03-06T17:11:28.332Z,1.76
2023-03-06T17:12:28.342Z,1.78
2023-03-06T17:13:28.311Z,1.76
2023-03-06T17:14:28.279Z,1.76
2023-03-06T17:15:28.283Z,1.73
2023-03-06T17:16:28.312Z,1.69
2023-03-06T17:17:28.253Z,1.60
2023-03-06T17:18:28.273Z,1.51
2023-03-06T17:19:28.312Z,1.47
2023-03-06T17:20:28.278Z,1.43
2023-03-06T17:21:28.249Z,1.37
2023-03-06T17:22:28.258Z,1.40
2023-03-06T17:23:28.255Z,1.37
2023-03-06T17:24:28.290Z,1.32
2023-03-06T17:25:28.348Z,1.28
2023-03-06T17:26:28.187Z,1.22
2023-03-06T17:27:28.231Z,1.18
2023-03-06T17:28:28.262Z,1.21
2023-03-06T17:29:28.188Z,1.15
2023-03-06T17:30:28.193Z,1.15
2023-03-06T17:31:28.270Z,1.07
2023-03-06T17:32:28.216Z,1.06
2023-03-06T17:33:28.231Z,1.04
2023-03-06T17:34:28.161Z,1.01
2023-03-06T17:35:28.242Z,1.00
2023-03-06T17:36:28.118Z,1.00
2023-03-06T17:37:28.152Z,0.97
2023-03-06T17:38:28.142Z,0.94
2023-03-06T17:39:28.094Z,0.94
2023-03-06T17:40:28.080Z,0.86
2023-03-06T17:41:28.127Z,0.86
2023-03-06T17:42:28.082Z,0.83
2023-03-06T17:43:28.101Z,0.82
2023-03-06T17:44:28.024Z,0.80
2023-03-06T17:45:28.051Z,0.82
2023-03-06T17:46:28.059Z,0.79
2023-03-06T17:47:28.051Z,0.79
2023-03-06T17:48:27.995Z,0.78
2023-03-06T17:49:27.994Z,0.72
2023-03-06T17:50:27.992Z,0.71
2023-03-06T17:51:27.993Z,0.67
2023-03-06T17:52:27.938Z,0.67
2023-03-06T17:53:28.007Z,0.65
2023-03-06T17:54:27.937Z,0.62
2023-03-06T17:55:27.951Z,0.64
2023-03-06T17:56:27.912Z,0.61
2023-03-06T17:57:27.890Z,0.60
2023-03-06T17:58:27.972Z,0.57
2023-03-06T17:59:27.913Z,0.58
2023-03-06T18:00:27.873Z,0.53
2023-03-06T18:01:29.278Z,0.51
2023-03-06T18:02:27.851Z,0.51
2023-03-06T18:03:27.875Z,0.49
2023-03-06T18:04:28.043Z,0.45
2023-03-06T18:05:27.804Z,0.46
2023-03-06T18:06:27.794Z,0.45
2023-03-06T18:07:27.820Z,0.49
2023-03-06T18:08:27.792Z,0.45
2023-03-06T18:09:27.763Z,0.42
2023-03-06T18:10:27.779Z,0.38
2023-03-06T18:11:27.750Z,0.39
2023-03-06T18:12:27.744Z,0.38
2023-03-06T18:13:27.732Z,0.36
2023-03-06T18:14:27.721Z,0.39
2023-03-06T18:15:27.807Z,0.36
2023-03-06T18:16:27.752Z,0.33
2023-03-06T18:17:27.700Z,0.33
2023-03-06T18:18:27.677Z,0.30